ADDS METAR Data INFO
IDs: Format: Raw Decoded Include TAF

Data at: 0200 UTC 17 Oct 2017

KMSY 170153Z 02013G17KT 10SM BKN250 21/11 A3016 RMK AO2 SLP216 T02110111
KMSY 170053Z 02013KT 10SM BKN250 21/11 A3015 RMK AO2 SLP212 T02110111
KMSY 162353Z 01009G18KT 10SM FEW050 BKN250 22/10 A3011 RMK AO2 SLP200 T02170100 10239 20217 53014
KMSY 162253Z 01009G18KT 10SM FEW050 BKN250 23/10 A3009 RMK AO2 SLP192 T02280100
KMSY 162153Z 01011G17KT 10SM FEW050 BKN250 23/10 A3008 RMK AO2 SLP190 T02280100
KMSY 162053Z 01011G18KT 10SM FEW055 OVC250 24/10 A3007 RMK AO2 SLP186 T02390100 55019
KMSY 161953Z 01010G18KT 10SM FEW050 BKN250 23/11 A3007 RMK AO2 SLP186 T02330111
KMSY 161853Z 36013G18KT 10SM FEW035 FEW080 BKN270 22/12 A3009 RMK AO2 SLP192 T02220117
KMSY 161753Z 34011G18KT 10SM FEW080 BKN250 22/14 A3013 RMK AO2 SLP205 60000 T02220139 10222 20178 58014
KMSY 161653Z 01015G21KT 10SM SCT015 BKN250 20/16 A3015 RMK AO2 SLP213 SCT V BKN T02000156
KMSY 161644Z COR 36013G19KT 10SM BKN015 BKN250 19/16 A3015 RMK AO2 T01940156
KMSY 161553Z 36008G19KT 10SM OVC010 18/16 A3017 RMK AO2 SLP219 T01830161
KMSY 161453Z 02010G17KT 10SM OVC010 19/17 A3017 RMK AO2 SLP219 60000 T01890167 51023
KMSY 161439Z 01014G20KT 10SM OVC010 18/17 A3016 RMK AO2 T01830167
KMSY 161353Z 01012G18KT 10SM OVC009 19/18 A3015 RMK AO2 RAE05 SLP213 P0000 T01890178
KMSY 161342Z 36015G19KT 10SM OVC009 19/18 A3015 RMK AO2 RAE05 P0000 T01890178
KMSY 161253Z 01009G17KT 9SM -RA OVC013 21/19 A3012 RMK AO2 RAB52 SLP203 P0000 T02060194
KMSY 161153Z 01009G17KT 10SM OVC013 21/19 A3010 RMK AO2 SLP195 70006 T02110194 10250 20211 53019
KMSY 161053Z 36010G20KT 10SM OVC013 21/19 A3008 RMK AO2 LTG DSNT NW SLP188 CB DSNT NW T02110194
KMSY 161043Z 36010G18KT 10SM OVC013 21/19 A3008 RMK AO2 T02110194
KMSY 160953Z 36010G19KT 10SM OVC015 22/20 A3006 RMK AO2 SLP183 T02170200
KMSY 160853Z 36012G20KT 10SM OVC019 22/20 A3004 RMK AO2 SLP176 T02220200 58002
KMSY 160823Z 36008G19KT 10SM BKN015 OVC019 23/21 A3005 RMK AO2 T02280206
KMSY 160753Z 36011G21KT 10SM OVC011 23/21 A3005 RMK AO2 SLP179 T02280211
KMSY 160742Z 36013G21KT 10SM OVC011 23/22 A3005 RMK AO2 T02280217
KMSY 160703Z 36013KT 10SM BKN009 BKN016 OVC033 24/23 A3005 RMK AO2 T02390233
KMSY 160653Z 36013G19KT 10SM SCT009 BKN014 BKN019 24/24 A3005 RMK AO2 SLP178 T02440239
KMSY 160649Z 36013G19KT 10SM BKN009 BKN016 OVC029 24/24 A3005 RMK AO2 CIG 007V014
KMSY 160641Z 36008KT 10SM BKN012 BKN019 25/24 A3005 RMK AO2 T02500244
KMSY 160553Z 00000KT 10SM SCT250 24/24 A3005 RMK AO2 SLP180 T02440244 10261 20233 402940233 58003
KMSY 160453Z 00000KT 10SM FEW150 FEW250 24/24 A3006 RMK AO2 SLP183 T02440244
KMSY 160353Z 00000KT 10SM FEW080 BKN250 24/24 A3007 RMK AO2 SLP184 T02390239
KMSY 160253Z 00000KT 10SM FEW010 FEW080 BKN250 24/24 A3006 RMK AO2 SLP183 FU FEW010 OCNL LTGIC DSNT N AND S CB DSNT N AND S T02390239 51014
KMSY 160232Z 11005KT 10SM FEW010 SCT250 25/24 A3006 RMK AO2 FU FEW010 W-N OCNL LTGIC DSNT N AND S CB DSNT N AND S T02500239
KMSY 160153Z 00000KT 10SM FEW015 FEW080 BKN270 26/24 A3006 RMK AO2 SLP181 OCNL LTGICCC DSNT S CB DSNT S T02560244
KMSY 160053Z 00000KT 10SM FEW010 FEW080 BKN250 26/24 A3004 RMK AO2 SLP173 FU FEW010 T02560239
KMSY 152353Z 09004KT 10SM FEW015 FEW080 BKN250 26/24 A3002 RMK AO2 SLP169 CB DSNT E 60005 T02610239 10283 20256 51006
KMSY 152253Z 11004KT 10SM FEW020 FEW080 BKN210 26/24 A3002 RMK AO2 SLP168 T02610244
KMSY 152153Z 10009KT 10SM FEW020 FEW050 BKN250 27/24 A3002 RMK AO2 SLP168 CB DSNT E-S-W AND NW T02670239
KMSY 152053Z 09003KT 10SM FEW020 FEW080 BKN270 28/24 A3000 RMK AO2 LTG DSNT E AND SE SLP162 CB DSNT N AND NE-S-W AND NW 60005 T02780244 56017
KMSY 151953Z 11004KT 10SM FEW025 FEW080 FEW130 BKN270 28/24 A3000 RMK AO2 LTG DSNT NE-S SLP163 CB DSNT N-SE-SW T02830239
KMSY 151853Z 13005KT 10SM FEW030 SCT070 BKN250 28/26 A3003 RMK AO2 LTG DSNT ALQDS RAE23 SLP171 CB DSNT ALQDS P0005 T02780256
KMSY 151837Z 06003KT 10SM FEW030 SCT060 BKN250 28/26 A3004 RMK AO2 LTG DSNT E-SW RAE23 CB DSNT ALQDS P0005 T02830256
KMSY 151802Z 15003KT 6SM VCTS RA BR FEW024CB BKN070 OVC100 27/25 A3005 RMK AO2 LTG DSNT ALQDS CB OHD AND E MOV E P0004 T02670250
KMSY 151758Z 00000KT 1 3/4SM VCTS +RA BR SCT024 BKN075 OVC100 27/26 A3005 RMK AO2 LTG DSNT ALQDS P0002 T02670256
KMSY 151753Z 27003KT 3SM VCTS -RA BR SCT022CB SCT065 OVC100 26/26 A3005 RMK AO2 LTG DSNT ALQDS RAB39 TSB07E46 SLP180 CB OHD AND E MOV E P0000 60001 T02610256 10294 20256 58011
KMSY 151713Z VRB03KT 10SM TS BKN035CB BKN055 OVC200 29/24 A3008 RMK AO2 LTG DSNT SE TSB07 OCNL LTGICCG N-NE TS N-NE CB SW-NW MOV E T02890244
KMSY 151653Z 36007KT 8SM BKN035CB BKN050 OVC090 28/25 A3009 RMK AO2 LTG DSNT S AND W RAB1558E21 SLP191 CB W-NW-N MOV E CB DSNT SE P0001 T02780250
KMSY 151637Z 00000KT 8SM VCTS FEW030CB BKN048 BKN090 OVC200 28/26 A3008 RMK AO2 LTG DSNT SE AND S RAB1558E21 CB W-NW-N MOV E CB DSNT E-SE P0001 T02830256
KMSY 151553Z 18007KT 10SM FEW018 BKN030 BKN035 BKN200 28/26 A3008 RMK AO2 LTG DSNT S SLP190 CB DSNT S-SW AND W T02780261
KMSY 151453Z 13007KT 10SM SCT013 BKN200 28/26 A3008 RMK AO2 SLP189 T02830256 51016